sensor_id;sensor_type;location;lat;lon;timestamp;P1;durP1;ratioP1;P2;durP2;ratioP2
36443;SDS011;24692;45.642;13.806;2024-02-21T00:00:36;3.50;;;2.97;;
36443;SDS011;24692;45.642;13.806;2024-02-21T00:03:04;3.60;;;2.83;;
36443;SDS011;24692;45.642;13.806;2024-02-21T00:05:30;4.33;;;3.10;;
36443;SDS011;24692;45.642;13.806;2024-02-21T00:07:58;4.67;;;2.70;;
36443;SDS011;24692;45.642;13.806;2024-02-21T00:10:25;4.47;;;3.23;;
36443;SDS011;24692;45.642;13.806;2024-02-21T00:12:58;4.43;;;3.10;;
36443;SDS011;24692;45.642;13.806;2024-02-21T00:15:29;4.13;;;2.93;;
36443;SDS011;24692;45.642;13.806;2024-02-21T00:17:58;4.33;;;3.30;;
36443;SDS011;24692;45.642;13.806;2024-02-21T00:20:27;4.03;;;3.10;;
36443;SDS011;24692;45.642;13.806;2024-02-21T00:22:53;3.93;;;3.13;;
36443;SDS011;24692;45.642;13.806;2024-02-21T00:25:19;5.93;;;3.27;;
36443;SDS011;24692;45.642;13.806;2024-02-21T00:27:47;3.60;;;3.30;;
36443;SDS011;24692;45.642;13.806;2024-02-21T00:30:26;6.30;;;4.13;;
36443;SDS011;24692;45.642;13.806;2024-02-21T00:32:53;6.23;;;4.07;;
36443;SDS011;24692;45.642;13.806;2024-02-21T00:35:23;6.10;;;4.23;;
36443;SDS011;24692;45.642;13.806;2024-02-21T00:37:50;5.73;;;3.73;;
36443;SDS011;24692;45.642;13.806;2024-02-21T00:40:17;5.20;;;3.77;;
36443;SDS011;24692;45.642;13.806;2024-02-21T00:42:48;4.50;;;3.80;;
36443;SDS011;24692;45.642;13.806;2024-02-21T00:45:20;5.33;;;3.77;;
36443;SDS011;24692;45.642;13.806;2024-02-21T00:47:47;5.23;;;3.70;;
36443;SDS011;24692;45.642;13.806;2024-02-21T00:50:14;6.23;;;3.77;;
36443;SDS011;24692;45.642;13.806;2024-02-21T00:52:40;5.53;;;3.57;;
36443;SDS011;24692;45.642;13.806;2024-02-21T00:55:08;4.67;;;3.30;;
36443;SDS011;24692;45.642;13.806;2024-02-21T00:57:37;4.60;;;3.43;;
36443;SDS011;24692;45.642;13.806;2024-02-21T01:00:05;5.07;;;3.60;;
36443;SDS011;24692;45.642;13.806;2024-02-21T01:02:33;4.63;;;3.50;;
36443;SDS011;24692;45.642;13.806;2024-02-21T01:05:09;4.93;;;3.57;;
36443;SDS011;24692;45.642;13.806;2024-02-21T01:07:35;5.33;;;3.80;;
36443;SDS011;24692;45.642;13.806;2024-02-21T01:10:02;5.67;;;3.40;;
36443;SDS011;24692;45.642;13.806;2024-02-21T01:12:31;5.60;;;3.47;;
36443;SDS011;24692;45.642;13.806;2024-02-21T01:14:57;4.67;;;3.20;;
36443;SDS011;24692;45.642;13.806;2024-02-21T01:17:24;4.03;;;2.90;;
36443;SDS011;24692;45.642;13.806;2024-02-21T01:19:53;4.07;;;3.27;;
36443;SDS011;24692;45.642;13.806;2024-02-21T01:22:21;4.00;;;3.00;;
36443;SDS011;24692;45.642;13.806;2024-02-21T01:24:47;4.53;;;3.27;;
36443;SDS011;24692;45.642;13.806;2024-02-21T01:27:15;3.53;;;2.77;;
36443;SDS011;24692;45.642;13.806;2024-02-21T01:29:41;2.87;;;2.47;;
36443;SDS011;24692;45.642;13.806;2024-02-21T01:32:10;3.97;;;2.57;;
36443;SDS011;24692;45.642;13.806;2024-02-21T01:34:37;2.60;;;2.07;;
36443;SDS011;24692;45.642;13.806;2024-02-21T01:37:03;3.60;;;2.60;;
36443;SDS011;24692;45.642;13.806;2024-02-21T01:39:40;3.00;;;2.50;;
36443;SDS011;24692;45.642;13.806;2024-02-21T01:42:10;2.73;;;2.30;;
36443;SDS011;24692;45.642;13.806;2024-02-21T01:44:36;2.37;;;2.17;;
36443;SDS011;24692;45.642;13.806;2024-02-21T01:47:04;2.60;;;2.30;;
36443;SDS011;24692;45.642;13.806;2024-02-21T01:49:31;3.43;;;2.50;;
36443;SDS011;24692;45.642;13.806;2024-02-21T01:51:58;5.70;;;2.57;;
36443;SDS011;24692;45.642;13.806;2024-02-21T01:54:24;2.57;;;2.37;;
36443;SDS011;24692;45.642;13.806;2024-02-21T01:56:53;3.27;;;2.43;;
36443;SDS011;24692;45.642;13.806;2024-02-21T01:59:21;3.07;;;2.40;;
36443;SDS011;24692;45.642;13.806;2024-02-21T02:01:48;3.77;;;2.40;;
36443;SDS011;24692;45.642;13.806;2024-02-21T02:04:16;3.13;;;2.23;;
36443;SDS011;24692;45.642;13.806;2024-02-21T02:06:50;3.20;;;2.57;;
36443;SDS011;24692;45.642;13.806;2024-02-21T02:09:20;3.30;;;2.47;;
36443;SDS011;24692;45.642;13.806;2024-02-21T02:11:47;2.73;;;2.20;;
36443;SDS011;24692;45.642;13.806;2024-02-21T02:14:14;2.70;;;2.50;;
36443;SDS011;24692;45.642;13.806;2024-02-21T02:16:40;2.40;;;2.20;;
36443;SDS011;24692;45.642;13.806;2024-02-21T02:19:07;2.17;;;1.97;;
36443;SDS011;24692;45.642;13.806;2024-02-21T02:21:39;2.90;;;2.23;;
36443;SDS011;24692;45.642;13.806;2024-02-21T02:24:13;2.83;;;2.40;;
36443;SDS011;24692;45.642;13.806;2024-02-21T02:26:42;4.67;;;2.30;;
36443;SDS011;24692;45.642;13.806;2024-02-21T02:29:12;2.77;;;2.30;;
36443;SDS011;24692;45.642;13.806;2024-02-21T02:31:41;3.67;;;2.30;;
36443;SDS011;24692;45.642;13.806;2024-02-21T02:34:09;2.20;;;1.97;;
36443;SDS011;24692;45.642;13.806;2024-02-21T02:36:36;2.47;;;2.10;;
36443;SDS011;24692;45.642;13.806;2024-02-21T02:39:01;4.03;;;2.50;;
36443;SDS011;24692;45.642;13.806;2024-02-21T02:41:34;4.27;;;2.70;;
36443;SDS011;24692;45.642;13.806;2024-02-21T02:44:01;3.50;;;2.43;;
36443;SDS011;24692;45.642;13.806;2024-02-21T02:46:28;3.33;;;2.37;;
36443;SDS011;24692;45.642;13.806;2024-02-21T02:48:56;3.03;;;2.40;;
36443;SDS011;24692;45.642;13.806;2024-02-21T02:51:21;3.87;;;2.70;;
36443;SDS011;24692;45.642;13.806;2024-02-21T02:53:47;3.30;;;2.40;;
36443;SDS011;24692;45.642;13.806;2024-02-21T02:56:16;2.97;;;2.47;;
36443;SDS011;24692;45.642;13.806;2024-02-21T02:58:43;3.03;;;2.47;;
36443;SDS011;24692;45.642;13.806;2024-02-21T03:01:09;2.87;;;2.53;;
36443;SDS011;24692;45.642;13.806;2024-02-21T03:03:35;3.10;;;2.47;;
36443;SDS011;24692;45.642;13.806;2024-02-21T03:06:02;3.20;;;2.30;;
36443;SDS011;24692;45.642;13.806;2024-02-21T03:08:28;4.47;;;2.53;;
36443;SDS011;24692;45.642;13.806;2024-02-21T03:10:56;3.77;;;2.70;;
36443;SDS011;24692;45.642;13.806;2024-02-21T03:13:24;4.13;;;2.83;;
36443;SDS011;24692;45.642;13.806;2024-02-21T03:15:51;5.17;;;2.60;;
36443;SDS011;24692;45.642;13.806;2024-02-21T03:18:20;2.63;;;2.40;;
36443;SDS011;24692;45.642;13.806;2024-02-21T03:20:47;3.57;;;2.70;;
36443;SDS011;24692;45.642;13.806;2024-02-21T03:23:14;4.07;;;2.90;;
36443;SDS011;24692;45.642;13.806;2024-02-21T03:25:40;3.60;;;2.73;;
36443;SDS011;24692;45.642;13.806;2024-02-21T03:28:06;4.57;;;2.60;;
36443;SDS011;24692;45.642;13.806;2024-02-21T03:30:32;2.83;;;2.47;;
36443;SDS011;24692;45.642;13.806;2024-02-21T03:32:59;3.77;;;2.57;;
36443;SDS011;24692;45.642;13.806;2024-02-21T03:35:26;3.00;;;2.40;;
36443;SDS011;24692;45.642;13.806;2024-02-21T03:37:54;4.03;;;2.67;;
36443;SDS011;24692;45.642;13.806;2024-02-21T03:40:20;5.43;;;2.67;;
36443;SDS011;24692;45.642;13.806;2024-02-21T03:42:46;3.00;;;2.50;;
36443;SDS011;24692;45.642;13.806;2024-02-21T03:45:12;3.40;;;2.57;;
36443;SDS011;24692;45.642;13.806;2024-02-21T03:47:38;3.83;;;2.90;;
36443;SDS011;24692;45.642;13.806;2024-02-21T03:50:06;4.13;;;2.73;;
36443;SDS011;24692;45.642;13.806;2024-02-21T03:52:34;4.03;;;2.80;;
36443;SDS011;24692;45.642;13.806;2024-02-21T03:55:00;3.63;;;2.80;;
36443;SDS011;24692;45.642;13.806;2024-02-21T03:57:27;3.67;;;2.90;;
36443;SDS011;24692;45.642;13.806;2024-02-21T03:59:55;5.50;;;3.00;;
36443;SDS011;24692;45.642;13.806;2024-02-21T04:02:23;3.70;;;3.10;;
36443;SDS011;24692;45.642;13.806;2024-02-21T04:04:50;4.23;;;2.53;;
36443;SDS011;24692;45.642;13.806;2024-02-21T04:07:16;3.80;;;2.80;;
36443;SDS011;24692;45.642;13.806;2024-02-21T04:09:42;3.67;;;2.87;;
36443;SDS011;24692;45.642;13.806;2024-02-21T04:12:08;4.00;;;2.60;;
36443;SDS011;24692;45.642;13.806;2024-02-21T04:14:34;4.43;;;3.10;;
36443;SDS011;24692;45.642;13.806;2024-02-21T04:17:00;3.53;;;2.57;;
36443;SDS011;24692;45.642;13.806;2024-02-21T04:19:26;4.53;;;3.30;;
36443;SDS011;24692;45.642;13.806;2024-02-21T04:21:51;3.73;;;2.50;;
36443;SDS011;24692;45.642;13.806;2024-02-21T04:24:17;4.47;;;2.90;;
36443;SDS011;24692;45.642;13.806;2024-02-21T04:26:43;5.70;;;3.10;;
36443;SDS011;24692;45.642;13.806;2024-02-21T04:29:09;3.53;;;2.60;;
36443;SDS011;24692;45.642;13.806;2024-02-21T04:31:35;4.30;;;2.87;;
36443;SDS011;24692;45.642;13.806;2024-02-21T04:34:01;3.97;;;2.93;;
36443;SDS011;24692;45.642;13.806;2024-02-21T04:36:27;3.50;;;2.50;;
36443;SDS011;24692;45.642;13.806;2024-02-21T04:38:53;3.23;;;2.50;;
36443;SDS011;24692;45.642;13.806;2024-02-21T04:41:19;3.20;;;2.60;;
36443;SDS011;24692;45.642;13.806;2024-02-21T04:43:47;3.10;;;2.60;;
36443;SDS011;24692;45.642;13.806;2024-02-21T04:46:13;3.90;;;2.83;;
36443;SDS011;24692;45.642;13.806;2024-02-21T04:48:39;5.67;;;3.17;;
36443;SDS011;24692;45.642;13.806;2024-02-21T04:51:04;4.43;;;3.03;;
36443;SDS011;24692;45.642;13.806;2024-02-21T04:53:30;3.93;;;3.10;;
36443;SDS011;24692;45.642;13.806;2024-02-21T04:55:56;3.10;;;2.80;;
36443;SDS011;24692;45.642;13.806;2024-02-21T04:58:21;3.70;;;3.10;;
36443;SDS011;24692;45.642;13.806;2024-02-21T05:00:47;5.50;;;2.80;;
36443;SDS011;24692;45.642;13.806;2024-02-21T05:03:13;4.63;;;2.80;;
36443;SDS011;24692;45.642;13.806;2024-02-21T05:05:38;3.97;;;3.13;;
36443;SDS011;24692;45.642;13.806;2024-02-21T05:08:04;4.33;;;3.00;;
36443;SDS011;24692;45.642;13.806;2024-02-21T05:10:30;4.80;;;2.73;;
36443;SDS011;24692;45.642;13.806;2024-02-21T05:12:57;3.93;;;2.97;;
36443;SDS011;24692;45.642;13.806;2024-02-21T05:15:23;4.93;;;2.73;;
36443;SDS011;24692;45.642;13.806;2024-02-21T05:17:49;4.80;;;2.90;;
36443;SDS011;24692;45.642;13.806;2024-02-21T05:20:14;4.03;;;3.07;;
36443;SDS011;24692;45.642;13.806;2024-02-21T05:22:40;4.17;;;2.80;;
36443;SDS011;24692;45.642;13.806;2024-02-21T05:25:06;4.57;;;3.37;;
36443;SDS011;24692;45.642;13.806;2024-02-21T05:27:32;5.00;;;3.17;;
36443;SDS011;24692;45.642;13.806;2024-02-21T05:29:58;4.17;;;3.03;;
36443;SDS011;24692;45.642;13.806;2024-02-21T05:32:25;4.80;;;3.17;;
36443;SDS011;24692;45.642;13.806;2024-02-21T05:34:51;4.77;;;2.90;;
36443;SDS011;24692;45.642;13.806;2024-02-21T05:37:17;4.70;;;3.10;;
36443;SDS011;24692;45.642;13.806;2024-02-21T05:39:42;4.20;;;3.23;;
36443;SDS011;24692;45.642;13.806;2024-02-21T05:42:09;3.73;;;3.27;;
36443;SDS011;24692;45.642;13.806;2024-02-21T05:44:34;4.23;;;3.30;;
36443;SDS011;24692;45.642;13.806;2024-02-21T05:47:00;4.00;;;3.20;;
36443;SDS011;24692;45.642;13.806;2024-02-21T05:49:25;5.43;;;3.30;;
36443;SDS011;24692;45.642;13.806;2024-02-21T05:51:51;4.17;;;3.20;;
36443;SDS011;24692;45.642;13.806;2024-02-21T05:54:17;3.30;;;2.90;;
36443;SDS011;24692;45.642;13.806;2024-02-21T05:56:45;4.40;;;3.03;;
36443;SDS011;24692;45.642;13.806;2024-02-21T05:59:12;4.10;;;2.63;;
36443;SDS011;24692;45.642;13.806;2024-02-21T06:01:37;4.80;;;2.90;;
36443;SDS011;24692;45.642;13.806;2024-02-21T06:04:03;11.77;;;3.30;;
36443;SDS011;24692;45.642;13.806;2024-02-21T06:06:29;9.83;;;4.23;;
36443;SDS011;24692;45.642;13.806;2024-02-21T06:08:55;14.00;;;4.00;;
36443;SDS011;24692;45.642;13.806;2024-02-21T06:11:21;20.97;;;4.80;;
36443;SDS011;24692;45.642;13.806;2024-02-21T06:13:47;39.17;;;6.43;;
36443;SDS011;24692;45.642;13.806;2024-02-21T06:16:13;39.50;;;6.27;;
36443;SDS011;24692;45.642;13.806;2024-02-21T06:18:38;53.37;;;8.00;;
36443;SDS011;24692;45.642;13.806;2024-02-21T06:21:04;43.10;;;7.57;;
36443;SDS011;24692;45.642;13.806;2024-02-21T06:23:30;50.27;;;7.53;;
36443;SDS011;24692;45.642;13.806;2024-02-21T06:25:56;58.90;;;9.27;;
36443;SDS011;24692;45.642;13.806;2024-02-21T06:28:21;47.23;;;7.90;;
36443;SDS011;24692;45.642;13.806;2024-02-21T06:30:47;27.27;;;5.97;;
36443;SDS011;24692;45.642;13.806;2024-02-21T06:33:13;15.43;;;4.53;;
36443;SDS011;24692;45.642;13.806;2024-02-21T06:35:38;8.40;;;3.77;;
36443;SDS011;24692;45.642;13.806;2024-02-21T06:38:06;8.53;;;3.90;;
36443;SDS011;24692;45.642;13.806;2024-02-21T06:40:32;10.00;;;3.50;;
36443;SDS011;24692;45.642;13.806;2024-02-21T06:43:03;8.77;;;3.50;;
36443;SDS011;24692;45.642;13.806;2024-02-21T06:45:30;7.73;;;3.53;;
36443;SDS011;24692;45.642;13.806;2024-02-21T06:47:56;7.97;;;3.07;;
36443;SDS011;24692;45.642;13.806;2024-02-21T06:50:23;6.17;;;3.60;;
36443;SDS011;24692;45.642;13.806;2024-02-21T06:52:50;6.43;;;3.10;;
36443;SDS011;24692;45.642;13.806;2024-02-21T06:55:17;6.17;;;3.30;;
36443;SDS011;24692;45.642;13.806;2024-02-21T06:57:44;4.07;;;3.23;;
36443;SDS011;24692;45.642;13.806;2024-02-21T07:00:14;5.30;;;3.03;;
36443;SDS011;24692;45.642;13.806;2024-02-21T07:02:44;5.53;;;3.20;;
36443;SDS011;24692;45.642;13.806;2024-02-21T07:05:14;5.27;;;3.40;;
36443;SDS011;24692;45.642;13.806;2024-02-21T07:07:42;4.70;;;3.20;;
36443;SDS011;24692;45.642;13.806;2024-02-21T07:10:08;4.77;;;3.30;;
36443;SDS011;24692;45.642;13.806;2024-02-21T07:12:34;4.80;;;3.10;;
36443;SDS011;24692;45.642;13.806;2024-02-21T07:15:02;4.87;;;3.10;;
36443;SDS011;24692;45.642;13.806;2024-02-21T07:17:28;4.30;;;3.13;;
36443;SDS011;24692;45.642;13.806;2024-02-21T07:19:53;3.90;;;3.13;;
36443;SDS011;24692;45.642;13.806;2024-02-21T07:22:21;4.97;;;3.60;;
36443;SDS011;24692;45.642;13.806;2024-02-21T07:24:47;5.73;;;3.70;;
36443;SDS011;24692;45.642;13.806;2024-02-21T07:27:15;4.47;;;3.30;;
36443;SDS011;24692;45.642;13.806;2024-02-21T07:29:41;4.43;;;3.10;;
36443;SDS011;24692;45.642;13.806;2024-02-21T07:32:12;5.23;;;3.13;;
36443;SDS011;24692;45.642;13.806;2024-02-21T07:34:38;4.10;;;2.67;;
36443;SDS011;24692;45.642;13.806;2024-02-21T07:37:04;3.40;;;2.80;;
36443;SDS011;24692;45.642;13.806;2024-02-21T07:39:30;4.03;;;2.83;;
36443;SDS011;24692;45.642;13.806;2024-02-21T07:41:55;4.93;;;3.37;;
36443;SDS011;24692;45.642;13.806;2024-02-21T07:44:23;3.83;;;3.00;;
36443;SDS011;24692;45.642;13.806;2024-02-21T07:46:50;8.90;;;3.50;;
36443;SDS011;24692;45.642;13.806;2024-02-21T07:49:16;6.40;;;3.60;;
36443;SDS011;24692;45.642;13.806;2024-02-21T07:51:45;6.03;;;2.90;;
36443;SDS011;24692;45.642;13.806;2024-02-21T07:54:11;6.63;;;3.67;;
36443;SDS011;24692;45.642;13.806;2024-02-21T07:56:36;6.23;;;3.30;;
36443;SDS011;24692;45.642;13.806;2024-02-21T07:59:02;6.20;;;3.73;;
36443;SDS011;24692;45.642;13.806;2024-02-21T08:01:28;5.57;;;3.80;;
36443;SDS011;24692;45.642;13.806;2024-02-21T08:03:57;6.07;;;3.50;;
36443;SDS011;24692;45.642;13.806;2024-02-21T08:06:24;5.60;;;3.43;;
36443;SDS011;24692;45.642;13.806;2024-02-21T08:08:49;7.70;;;3.63;;
36443;SDS011;24692;45.642;13.806;2024-02-21T08:11:18;4.77;;;3.20;;
36443;SDS011;24692;45.642;13.806;2024-02-21T08:13:44;5.17;;;3.37;;
36443;SDS011;24692;45.642;13.806;2024-02-21T08:16:10;4.33;;;3.20;;
36443;SDS011;24692;45.642;13.806;2024-02-21T08:18:37;6.20;;;3.30;;
36443;SDS011;24692;45.642;13.806;2024-02-21T08:21:05;3.73;;;3.20;;
36443;SDS011;24692;45.642;13.806;2024-02-21T08:23:30;4.03;;;3.10;;
36443;SDS011;24692;45.642;13.806;2024-02-21T08:25:57;5.07;;;3.30;;
36443;SDS011;24692;45.642;13.806;2024-02-21T08:28:24;5.27;;;3.43;;
36443;SDS011;24692;45.642;13.806;2024-02-21T08:30:50;5.77;;;3.50;;
36443;SDS011;24692;45.642;13.806;2024-02-21T08:33:15;4.43;;;3.27;;
36443;SDS011;24692;45.642;13.806;2024-02-21T08:35:51;6.10;;;3.30;;
36443;SDS011;24692;45.642;13.806;2024-02-21T08:38:17;10.43;;;3.28;;
36443;SDS011;24692;45.642;13.806;2024-02-21T08:40:43;3.83;;;2.80;;
36443;SDS011;24692;45.642;13.806;2024-02-21T08:43:09;4.20;;;2.50;;
36443;SDS011;24692;45.642;13.806;2024-02-21T08:45:35;2.63;;;2.30;;
36443;SDS011;24692;45.642;13.806;2024-02-21T08:48:03;3.55;;;2.42;;
36443;SDS011;24692;45.642;13.806;2024-02-21T08:50:30;3.75;;;2.78;;
36443;SDS011;24692;45.642;13.806;2024-02-21T08:52:55;3.67;;;2.83;;
36443;SDS011;24692;45.642;13.806;2024-02-21T08:55:21;5.03;;;2.97;;
36443;SDS011;24692;45.642;13.806;2024-02-21T08:57:47;4.85;;;3.53;;
36443;SDS011;24692;45.642;13.806;2024-02-21T09:00:13;5.25;;;2.90;;
36443;SDS011;24692;45.642;13.806;2024-02-21T09:02:40;3.92;;;3.30;;
36443;SDS011;24692;45.642;13.806;2024-02-21T09:05:08;5.20;;;3.85;;
36443;SDS011;24692;45.642;13.806;2024-02-21T09:07:34;4.65;;;3.45;;
36443;SDS011;24692;45.642;13.806;2024-02-21T09:09:59;4.22;;;3.45;;
36443;SDS011;24692;45.642;13.806;2024-02-21T09:12:26;2.45;;;2.15;;
36443;SDS011;24692;45.642;13.806;2024-02-21T09:14:56;2.72;;;2.05;;
36443;SDS011;24692;45.642;13.806;2024-02-21T09:17:25;3.13;;;2.20;;
36443;SDS011;24692;45.642;13.806;2024-02-21T09:19:54;1.95;;;1.73;;
36443;SDS011;24692;45.642;13.806;2024-02-21T09:22:24;2.72;;;2.40;;
36443;SDS011;24692;45.642;13.806;2024-02-21T09:24:51;4.22;;;2.50;;
36443;SDS011;24692;45.642;13.806;2024-02-21T09:27:18;3.95;;;2.38;;
36443;SDS011;24692;45.642;13.806;2024-02-21T09:29:44;2.55;;;2.30;;
36443;SDS011;24692;45.642;13.806;2024-02-21T09:32:12;3.08;;;2.67;;
36443;SDS011;24692;45.642;13.806;2024-02-21T09:34:43;3.13;;;2.63;;
36443;SDS011;24692;45.642;13.806;2024-02-21T09:37:10;3.90;;;2.58;;
36443;SDS011;24692;45.642;13.806;2024-02-21T09:39:38;2.72;;;2.38;;
36443;SDS011;24692;45.642;13.806;2024-02-21T09:42:05;4.05;;;2.90;;
36443;SDS011;24692;45.642;13.806;2024-02-21T09:44:36;3.58;;;2.70;;
36443;SDS011;24692;45.642;13.806;2024-02-21T09:47:12;5.50;;;3.03;;
36443;SDS011;24692;45.642;13.806;2024-02-21T09:49:49;5.18;;;3.10;;
36443;SDS011;24692;45.642;13.806;2024-02-21T09:52:18;3.45;;;2.70;;
36443;SDS011;24692;45.642;13.806;2024-02-21T09:54:45;3.25;;;2.70;;
36443;SDS011;24692;45.642;13.806;2024-02-21T09:57:19;5.85;;;3.30;;
36443;SDS011;24692;45.642;13.806;2024-02-21T09:59:46;3.20;;;2.90;;
36443;SDS011;24692;45.642;13.806;2024-02-21T10:02:18;5.13;;;2.75;;
36443;SDS011;24692;45.642;13.806;2024-02-21T10:04:45;6.72;;;3.53;;
36443;SDS011;24692;45.642;13.806;2024-02-21T10:07:15;4.15;;;2.78;;
36443;SDS011;24692;45.642;13.806;2024-02-21T10:09:41;4.10;;;2.60;;
36443;SDS011;24692;45.642;13.806;2024-02-21T10:12:11;4.80;;;2.83;;
36443;SDS011;24692;45.642;13.806;2024-02-21T10:14:38;6.03;;;2.60;;
36443;SDS011;24692;45.642;13.806;2024-02-21T10:17:04;3.38;;;2.85;;
36443;SDS011;24692;45.642;13.806;2024-02-21T10:19:34;8.20;;;2.90;;
36443;SDS011;24692;45.642;13.806;2024-02-21T10:22:06;9.90;;;2.40;;
36443;SDS011;24692;45.642;13.806;2024-02-21T10:24:44;2.97;;;2.67;;
36443;SDS011;24692;45.642;13.806;2024-02-21T10:27:10;4.55;;;2.60;;
36443;SDS011;24692;45.642;13.806;2024-02-21T10:29:36;3.60;;;2.40;;
36443;SDS011;24692;45.642;13.806;2024-02-21T10:32:04;3.97;;;2.53;;
36443;SDS011;24692;45.642;13.806;2024-02-21T10:34:32;2.60;;;2.40;;
36443;SDS011;24692;45.642;13.806;2024-02-21T10:37:01;5.78;;;2.85;;
36443;SDS011;24692;45.642;13.806;2024-02-21T10:39:31;4.43;;;2.80;;
36443;SDS011;24692;45.642;13.806;2024-02-21T10:42:00;3.10;;;2.70;;
36443;SDS011;24692;45.642;13.806;2024-02-21T10:44:33;5.90;;;2.50;;
36443;SDS011;24692;45.642;13.806;2024-02-21T10:47:03;3.63;;;2.50;;
36443;SDS011;24692;45.642;13.806;2024-02-21T10:49:45;3.42;;;2.72;;
36443;SDS011;24692;45.642;13.806;2024-02-21T10:55:46;4.30;;;2.60;;
36443;SDS011;24692;45.642;13.806;2024-02-21T10:58:21;3.65;;;2.63;;
36443;SDS011;24692;45.642;13.806;2024-02-21T11:00:48;3.67;;;2.80;;
36443;SDS011;24692;45.642;13.806;2024-02-21T11:03:16;3.72;;;3.00;;
36443;SDS011;24692;45.642;13.806;2024-02-21T11:05:44;3.33;;;3.03;;
36443;SDS011;24692;45.642;13.806;2024-02-21T11:08:12;10.20;;;3.17;;
36443;SDS011;24692;45.642;13.806;2024-02-21T11:10:45;3.30;;;3.00;;
36443;SDS011;24692;45.642;13.806;2024-02-21T11:13:12;3.20;;;2.70;;
36443;SDS011;24692;45.642;13.806;2024-02-21T11:15:41;3.78;;;2.72;;
36443;SDS011;24692;45.642;13.806;2024-02-21T11:18:07;3.30;;;3.00;;
36443;SDS011;24692;45.642;13.806;2024-02-21T11:20:34;3.35;;;3.05;;
36443;SDS011;24692;45.642;13.806;2024-02-21T11:23:04;4.82;;;2.67;;
36443;SDS011;24692;45.642;13.806;2024-02-21T11:25:30;3.03;;;2.58;;
36443;SDS011;24692;45.642;13.806;2024-02-21T11:28:03;2.97;;;2.70;;
36443;SDS011;24692;45.642;13.806;2024-02-21T11:30:30;3.20;;;2.53;;
36443;SDS011;24692;45.642;13.806;2024-02-21T11:33:05;3.38;;;2.90;;
36443;SDS011;24692;45.642;13.806;2024-02-21T11:35:32;3.83;;;2.67;;
36443;SDS011;24692;45.642;13.806;2024-02-21T11:38:11;3.85;;;2.88;;
36443;SDS011;24692;45.642;13.806;2024-02-21T11:40:44;2.83;;;2.53;;
36443;SDS011;24692;45.642;13.806;2024-02-21T11:43:11;4.68;;;2.80;;
36443;SDS011;24692;45.642;13.806;2024-02-21T11:45:37;3.97;;;2.78;;
36443;SDS011;24692;45.642;13.806;2024-02-21T11:48:05;4.60;;;3.00;;
36443;SDS011;24692;45.642;13.806;2024-02-21T11:50:36;3.05;;;2.80;;
36443;SDS011;24692;45.642;13.806;2024-02-21T11:53:05;4.15;;;2.92;;
36443;SDS011;24692;45.642;13.806;2024-02-21T11:55:32;6.68;;;2.95;;
36443;SDS011;24692;45.642;13.806;2024-02-21T11:57:59;3.63;;;2.92;;
36443;SDS011;24692;45.642;13.806;2024-02-21T12:00:28;5.55;;;3.10;;
36443;SDS011;24692;45.642;13.806;2024-02-21T12:02:54;3.35;;;2.88;;
36443;SDS011;24692;45.642;13.806;2024-02-21T12:05:27;3.60;;;3.10;;
36443;SDS011;24692;45.642;13.806;2024-02-21T12:07:54;3.58;;;3.15;;
36443;SDS011;24692;45.642;13.806;2024-02-21T12:10:20;3.22;;;2.92;;
36443;SDS011;24692;45.642;13.806;2024-02-21T12:12:46;4.13;;;3.03;;
36443;SDS011;24692;45.642;13.806;2024-02-21T12:15:12;4.22;;;2.92;;
36443;SDS011;24692;45.642;13.806;2024-02-21T12:17:39;3.50;;;3.10;;
36443;SDS011;24692;45.642;13.806;2024-02-21T12:20:07;3.20;;;2.90;;
36443;SDS011;24692;45.642;13.806;2024-02-21T12:22:36;2.85;;;2.60;;
36443;SDS011;24692;45.642;13.806;2024-02-21T12:25:17;3.35;;;2.80;;
36443;SDS011;24692;45.642;13.806;2024-02-21T12:27:45;6.25;;;3.05;;
36443;SDS011;24692;45.642;13.806;2024-02-21T12:30:12;4.38;;;2.60;;
36443;SDS011;24692;45.642;13.806;2024-02-21T12:32:37;3.22;;;2.92;;
36443;SDS011;24692;45.642;13.806;2024-02-21T12:35:03;3.10;;;2.80;;
36443;SDS011;24692;45.642;13.806;2024-02-21T12:37:29;3.58;;;3.20;;
36443;SDS011;24692;45.642;13.806;2024-02-21T12:39:55;3.47;;;2.97;;
36443;SDS011;24692;45.642;13.806;2024-02-21T12:42:21;3.92;;;2.90;;
36443;SDS011;24692;45.642;13.806;2024-02-21T12:44:48;4.15;;;3.40;;
36443;SDS011;24692;45.642;13.806;2024-02-21T12:47:14;3.42;;;3.08;;
36443;SDS011;24692;45.642;13.806;2024-02-21T12:49:40;3.10;;;2.80;;
36443;SDS011;24692;45.642;13.806;2024-02-21T12:52:06;4.30;;;2.95;;
36443;SDS011;24692;45.642;13.806;2024-02-21T12:54:32;4.82;;;2.88;;
36443;SDS011;24692;45.642;13.806;2024-02-21T12:56:59;4.17;;;3.20;;
36443;SDS011;24692;45.642;13.806;2024-02-21T12:59:27;5.28;;;4.55;;
36443;SDS011;24692;45.642;13.806;2024-02-21T13:01:53;5.93;;;4.85;;
36443;SDS011;24692;45.642;13.806;2024-02-21T13:04:19;11.35;;;6.40;;
36443;SDS011;24692;45.642;13.806;2024-02-21T13:06:47;6.93;;;5.03;;
36443;SDS011;24692;45.642;13.806;2024-02-21T13:09:14;8.32;;;5.57;;
36443;SDS011;24692;45.642;13.806;2024-02-21T13:11:40;7.03;;;5.53;;
36443;SDS011;24692;45.642;13.806;2024-02-21T13:14:06;13.00;;;7.80;;
36443;SDS011;24692;45.642;13.806;2024-02-21T13:16:32;10.63;;;6.57;;
36443;SDS011;24692;45.642;13.806;2024-02-21T13:19:04;6.65;;;4.85;;
36443;SDS011;24692;45.642;13.806;2024-02-21T13:21:30;8.48;;;5.35;;
36443;SDS011;24692;45.642;13.806;2024-02-21T13:23:56;6.95;;;4.90;;
36443;SDS011;24692;45.642;13.806;2024-02-21T13:26:22;5.55;;;4.15;;
36443;SDS011;24692;45.642;13.806;2024-02-21T13:28:48;5.78;;;4.40;;
36443;SDS011;24692;45.642;13.806;2024-02-21T13:31:14;5.18;;;4.13;;
36443;SDS011;24692;45.642;13.806;2024-02-21T13:33:41;7.05;;;4.25;;
36443;SDS011;24692;45.642;13.806;2024-02-21T13:36:10;4.68;;;4.15;;
36443;SDS011;24692;45.642;13.806;2024-02-21T13:38:36;5.72;;;4.10;;
36443;SDS011;24692;45.642;13.806;2024-02-21T13:41:03;5.77;;;3.80;;
36443;SDS011;24692;45.642;13.806;2024-02-21T13:43:32;5.20;;;4.10;;
36443;SDS011;24692;45.642;13.806;2024-02-21T13:46:01;4.93;;;3.58;;
36443;SDS011;24692;45.642;13.806;2024-02-21T13:48:34;6.93;;;4.05;;
36443;SDS011;24692;45.642;13.806;2024-02-21T13:51:00;5.32;;;4.03;;
36443;SDS011;24692;45.642;13.806;2024-02-21T13:53:27;4.78;;;3.70;;
36443;SDS011;24692;45.642;13.806;2024-02-21T13:55:53;6.30;;;4.20;;
36443;SDS011;24692;45.642;13.806;2024-02-21T13:58:19;5.50;;;4.20;;
36443;SDS011;24692;45.642;13.806;2024-02-21T14:00:46;5.03;;;3.92;;
36443;SDS011;24692;45.642;13.806;2024-02-21T14:03:11;4.47;;;3.70;;
36443;SDS011;24692;45.642;13.806;2024-02-21T14:05:37;5.40;;;4.17;;
36443;SDS011;24692;45.642;13.806;2024-02-21T14:08:05;4.90;;;4.07;;
36443;SDS011;24692;45.642;13.806;2024-02-21T14:10:31;4.82;;;4.18;;
36443;SDS011;24692;45.642;13.806;2024-02-21T14:12:57;5.40;;;4.03;;
36443;SDS011;24692;45.642;13.806;2024-02-21T14:15:23;5.53;;;4.35;;
36443;SDS011;24692;45.642;13.806;2024-02-21T14:17:50;4.70;;;3.88;;
36443;SDS011;24692;45.642;13.806;2024-02-21T14:20:15;5.35;;;3.97;;
36443;SDS011;24692;45.642;13.806;2024-02-21T14:22:41;5.72;;;3.65;;
36443;SDS011;24692;45.642;13.806;2024-02-21T14:25:07;6.07;;;4.00;;
36443;SDS011;24692;45.642;13.806;2024-02-21T14:27:33;4.70;;;3.88;;
36443;SDS011;24692;45.642;13.806;2024-02-21T14:30:00;6.32;;;3.88;;
36443;SDS011;24692;45.642;13.806;2024-02-21T14:32:27;4.57;;;4.05;;
36443;SDS011;24692;45.642;13.806;2024-02-21T14:34:53;5.40;;;3.78;;
36443;SDS011;24692;45.642;13.806;2024-02-21T14:37:18;5.38;;;4.20;;